Time;durP1;ratioP1;P1;durP2;ratioP2;P2;SDS_P1;SDS_P2;PMS_P1;PMS_P2;Temp;Humidity;BMP_temperature;BMP_pressure;BME280_temperature;BME280_humidity;BME280_pressure;Samples;Min_cycle;Max_cycle;Signal;HPM_P1;HPM_P2
2022/01/03 00:02:31;;;;;;;21.73;12.80;;;;;;;8.03;62.54;99724.59;7737522;32;40068;-83
2022/01/03 00:06:48;;;;;;;22.67;12.93;;;;;;;7.96;63.27;99718.56;7737244;32;37983;-83
2022/01/03 00:11:04;;;;;;;21.45;12.48;;;;;;;7.95;63.46;99720.47;7737514;32;37168;-82
2022/01/03 00:15:21;;;;;;;22.02;13.55;;;;;;;7.69;64.10;99724.78;7737523;32;39309;-83
2022/01/03 00:19:37;;;;;;;20.52;12.55;;;;;;;7.62;63.60;99705.16;7737259;32;40550;-83
2022/01/03 00:24:13;;;;;;;24.00;13.48;;;;;;;7.74;62.82;99694.97;7737269;32;37814;-83
2022/01/03 00:28:34;;;;;;;22.30;12.32;;;;;;;7.67;62.86;99700.59;7736406;32;37126;-83
2022/01/03 00:32:51;;;;;;;22.27;12.18;;;;;;;7.56;63.63;99703.47;7737149;32;39183;-82
2022/01/03 00:37:09;;;;;;;25.30;12.37;;;;;;;7.62;62.95;99691.59;7736936;32;39942;-82
2022/01/03 00:41:25;;;;;;;24.83;13.07;;;;;;;7.58;62.77;99687.75;7736820;32;38684;-82
2022/01/03 00:45:42;;;;;;;22.70;12.73;;;;;;;7.63;62.25;99677.78;7736745;32;37100;-82
2022/01/03 00:50:00;;;;;;;23.87;13.00;;;;;;;7.47;62.83;99686.84;7736691;32;40099;-82
2022/01/03 00:54:16;;;;;;;19.05;11.90;;;;;;;7.50;63.42;99706.13;7736614;32;40726;-83
2022/01/03 00:58:42;;;;;;;21.92;12.07;;;;;;;7.67;63.21;99702.50;7736393;32;37895;-83
2022/01/03 01:03:05;;;;;;;23.50;12.98;;;;;;;7.61;62.38;99707.06;7736512;32;36978;-83
2022/01/03 01:07:21;;;;;;;19.20;12.10;;;;;;;7.73;62.82;99715.06;7736287;32;39853;-83
2022/01/03 01:11:44;;;;;;;24.60;11.77;;;;;;;7.64;63.09;99705.72;7734917;32;39989;-83
2022/01/03 01:16:02;;;;;;;25.83;14.98;;;;;;;7.64;62.47;99697.59;7735860;32;38637;-82
2022/01/03 01:20:20;;;;;;;24.98;13.38;;;;;;;7.51;63.12;99710.47;7738752;32;37983;-83
2022/01/03 01:24:47;;;;;;;22.37;12.70;;;;;;;7.49;62.94;99709.91;7739661;32;40060;-82
2022/01/03 01:29:03;;;;;;;23.10;12.85;;;;;;;7.34;62.56;99715.97;7739747;32;39580;-83
2022/01/03 01:33:21;;;;;;;22.25;12.20;;;;;;;7.41;61.84;99713.06;7739567;32;38824;-83
2022/01/03 01:37:59;;;;;;;26.92;14.75;;;;;;;7.40;62.28;99700.59;7739323;32;38525;-83
2022/01/03 01:42:18;;;;;;;23.58;14.32;;;;;;;7.39;63.08;99692.69;7739680;32;39818;-82
2022/01/03 01:46:41;;;;;;;46.67;13.13;;;;;;;7.40;63.70;99697.88;7739390;32;40100;-83
2022/01/03 01:50:59;;;;;;;42.70;11.15;;;;;;;6.90;63.35;99721.34;7739390;32;37952;-82
2022/01/03 01:55:16;;;;;;;21.77;12.73;;;;;;;7.04;61.58;99724.53;7738280;32;37685;-82
2022/01/03 01:59:53;;;;;;;25.88;13.85;;;;;;;6.94;61.70;99713.53;7738143;32;40045;-83
2022/01/03 02:04:42;;;;;;;24.25;14.57;;;;;;;6.81;63.15;99719.31;7739327;32;40880;-82
2022/01/03 02:09:08;;;;;;;25.85;15.25;;;;;;;6.72;64.49;99721.63;7739230;32;37759;-83
2022/01/03 02:13:25;;;;;;;24.00;14.38;;;;;;;6.97;63.59;99740.16;7739107;32;37066;-83
2022/01/03 02:17:44;;;;;;;24.60;13.82;;;;;;;6.83;64.75;99738.84;7737722;32;39700;-83
2022/01/03 02:22:00;;;;;;;23.87;14.55;;;;;;;6.77;65.23;99725.22;7739002;32;39966;-83
2022/01/03 02:26:16;;;;;;;26.15;14.60;;;;;;;7.15;64.50;99712.72;7738370;32;37892;-82
2022/01/03 02:30:33;;;;;;;25.20;14.18;;;;;;;6.94;66.17;99713.53;7738939;32;37192;-83
2022/01/03 02:34:49;;;;;;;27.37;15.23;;;;;;;7.32;65.40;99709.16;7738871;32;40018;-83
2022/01/03 02:39:05;;;;;;;22.85;13.27;;;;;;;7.56;65.81;99709.72;7738740;32;40030;-83
2022/01/03 02:43:22;;;;;;;26.77;14.50;;;;;;;7.49;67.30;99685.50;7738641;32;38667;-84
2022/01/03 02:47:39;;;;;;;23.62;13.85;;;;;;;7.78;66.64;99687.13;7737439;32;37931;-83
2022/01/03 02:51:55;;;;;;;22.48;13.98;;;;;;;7.94;66.29;99688.13;7738686;32;39307;-83
2022/01/03 02:56:11;;;;;;;23.77;13.10;;;;;;;7.80;66.62;99683.13;7738548;32;40815;-83
2022/01/03 03:00:30;;;;;;;23.08;13.00;;;;;;;8.14;65.83;99672.03;7738537;32;38698;-84
2022/01/03 03:05:03;;;;;;;21.65;12.95;;;;;;;8.19;65.31;99674.78;7738456;32;37166;-84
2022/01/03 03:09:21;;;;;;;20.98;11.05;;;;;;;8.26;65.27;99653.66;7738265;32;39686;-82
2022/01/03 03:13:37;;;;;;;19.17;11.12;;;;;;;8.49;64.36;99646.25;7738386;32;39602;-83
2022/01/03 03:17:53;;;;;;;16.90;11.05;;;;;;;8.65;63.75;99631.66;7738006;32;37579;-83
2022/01/03 03:22:09;;;;;;;22.87;12.25;;;;;;;8.32;65.62;99629.25;7738467;32;37740;-83
2022/01/03 03:26:25;;;;;;;20.30;10.82;;;;;;;7.99;64.41;99623.03;7738222;32;39576;-83
2022/01/03 03:30:45;;;;;;;20.35;11.90;;;;;;;8.07;64.66;99625.25;7738152;32;40739;-82
2022/01/03 03:35:01;;;;;;;18.60;10.98;;;;;;;7.95;64.54;99630.03;7738106;32;37920;-83
2022/01/03 03:39:17;;;;;;;21.37;12.32;;;;;;;8.09;64.05;99625.84;7737107;32;37126;-83
2022/01/03 03:43:33;;;;;;;21.70;11.88;;;;;;;7.98;65.06;99629.53;7738061;32;39336;-83
2022/01/03 03:47:51;;;;;;;23.42;12.77;;;;;;;8.01;64.95;99613.53;7737985;32;39879;-83
2022/01/03 03:52:07;;;;;;;22.77;13.77;;;;;;;7.77;65.08;99618.50;7737869;32;37936;-83
2022/01/03 03:56:23;;;;;;;30.90;16.62;;;;;;;7.76;63.87;99621.47;7736671;32;37915;-83
2022/01/03 04:00:39;;;;;;;23.55;14.25;;;;;;;7.58;63.17;99623.47;7737829;32;40004;-83
2022/01/03 04:05:16;;;;;;;23.33;13.55;;;;;;;7.50;63.19;99613.91;7737307;32;41173;-83
2022/01/03 04:09:32;;;;;;;20.40;12.57;;;;;;;7.55;63.91;99615.81;7737664;32;38617;-83
2022/01/03 04:13:48;;;;;;;24.12;13.20;;;;;;;7.62;64.10;99599.34;7737526;32;38025;-83
2022/01/03 04:18:05;;;;;;;21.73;12.82;;;;;;;7.66;65.04;99605.91;7737002;32;40011;-83
2022/01/03 04:22:21;;;;;;;19.73;12.23;;;;;;;7.67;66.09;99608.34;7737361;32;40038;-83
2022/01/03 04:26:38;;;;;;;20.05;11.35;;;;;;;8.03;65.23;99595.09;7737648;32;35968;-83
2022/01/03 04:30:54;;;;;;;25.80;13.70;;;;;;;8.13;65.11;99599.78;7737203;32;37365;-83
2022/01/03 04:35:11;;;;;;;18.08;11.88;;;;;;;7.88;62.53;99601.22;7737178;32;39697;-83
2022/01/03 04:39:27;;;;;;;17.77;11.10;;;;;;;7.98;62.72;99603.19;7736916;32;40476;-83
2022/01/03 04:43:43;;;;;;;19.25;10.70;;;;;;;7.99;63.37;99587.75;7736800;32;37947;-84
2022/01/03 04:47:59;;;;;;;16.77;10.63;;;;;;;8.02;64.19;99588.03;7736666;32;38006;-84
2022/01/03 04:52:15;;;;;;;18.85;10.23;;;;;;;8.38;63.62;99592.88;7739505;32;40101;-83
2022/01/03 04:56:33;;;;;;;17.73;9.35;;;;;;;8.49;63.07;99597.34;7738834;32;40835;-85
2022/01/03 05:00:49;;;;;;;16.52;10.07;;;;;;;8.70;62.77;99595.56;7739974;32;37922;-84
2022/01/03 05:05:06;;;;;;;15.98;9.70;;;;;;;8.77;62.09;99582.53;7739975;32;37151;-84
2022/01/03 05:09:22;;;;;;;17.90;10.82;;;;;;;8.78;62.06;99588.81;7739888;32;38952;-84
2022/01/03 05:13:39;;;;;;;19.92;11.65;;;;;;;8.60;62.61;99592.78;7739834;32;39659;-82
2022/01/03 05:17:55;;;;;;;18.58;12.05;;;;;;;8.82;65.44;99592.62;7738372;32;38403;-84
2022/01/03 05:22:11;;;;;;;21.37;12.65;;;;;;;8.46;62.40;99592.44;7739733;32;37619;-84
2022/01/03 05:26:27;;;;;;;20.62;12.40;;;;;;;8.31;62.21;99589.59;7739620;32;39997;-80
2022/01/03 05:30:44;;;;;;;20.27;12.68;;;;;;;8.32;62.01;99593.94;7739693;32;40004;-83
2022/01/03 05:35:00;;;;;;;22.08;13.02;;;;;;;8.10;62.62;99584.00;7739630;32;37893;-83
2022/01/03 05:39:16;;;;;;;20.60;12.68;;;;;;;8.07;62.84;99584.53;7739455;32;37869;-83
2022/01/03 05:43:32;;;;;;;25.05;12.95;;;;;;;8.09;63.07;99582.37;7739371;32;39988;-83
2022/01/03 05:47:48;;;;;;;19.52;12.48;;;;;;;8.05;63.70;99581.25;7739160;32;40019;-83
2022/01/03 05:52:05;;;;;;;21.48;12.93;;;;;;;8.08;63.80;99567.16;7739193;32;38113;-82
2022/01/03 05:56:21;;;;;;;22.23;12.93;;;;;;;8.33;62.85;99565.69;7739456;32;36748;-83
2022/01/03 06:00:37;;;;;;;22.37;13.48;;;;;;;8.09;64.06;99572.34;7738897;32;39342;-83
2022/01/03 06:04:58;;;;;;;23.08;14.15;;;;;;;8.28;63.59;99596.37;7739074;32;40848;-80
2022/01/03 06:09:14;;;;;;;20.37;12.43;;;;;;;8.28;64.01;99608.03;7739082;32;37880;-80
2022/01/03 06:13:30;;;;;;;23.50;12.90;;;;;;;8.55;62.50;99579.97;7739078;32;37079;-82
2022/01/03 06:17:46;;;;;;;20.00;12.07;;;;;;;8.52;62.84;99580.53;7738899;32;40020;-82
2022/01/03 06:22:04;;;;;;;21.08;12.25;;;;;;;8.62;62.59;99591.44;7739052;32;39992;-82
2022/01/03 06:26:20;;;;;;;20.10;11.18;;;;;;;8.77;62.14;99576.28;7738813;32;40165;-80
2022/01/03 06:30:38;;;;;;;21.48;12.00;;;;;;;8.79;62.08;99596.69;7738792;32;38553;-79
2022/01/03 06:34:54;;;;;;;17.75;10.38;;;;;;;8.84;61.43;99588.53;7738048;32;39993;-79
2022/01/03 06:39:12;;;;;;;16.92;10.82;;;;;;;8.94;60.90;99587.78;7738746;32;40903;-79
2022/01/03 06:43:28;;;;;;;18.37;10.85;;;;;;;8.97;60.71;99598.13;7737201;32;37877;-78
2022/01/03 06:47:44;;;;;;;19.45;10.13;;;;;;;8.99;60.41;99606.84;7735280;32;36735;-79
2022/01/03 06:52:00;;;;;;;17.65;10.15;;;;;;;9.23;58.99;99628.16;7735268;32;39294;-79
2022/01/03 06:56:16;;;;;;;16.73;8.82;;;;;;;9.52;58.45;99641.25;7735250;32;39970;-80
2022/01/03 07:00:32;;;;;;;22.95;12.07;;;;;;;9.62;57.94;99624.16;7737984;32;37919;-80
2022/01/03 07:04:49;;;;;;;25.67;11.77;;;;;;;9.78;57.28;99626.63;7738628;32;37517;-79
2022/01/03 07:09:07;;;;;;;15.52;9.10;;;;;;;9.89;56.46;99630.19;7738407;32;39755;-80
2022/01/03 07:13:25;;;;;;;12.10;7.45;;;;;;;10.11;55.67;99621.75;7738515;32;39644;-79
2022/01/03 07:22:16;;;;;;;19.77;10.10;;;;;;;10.44;54.04;99618.75;7738578;32;37050;-79
2022/01/03 07:26:33;;;;;;;13.80;7.05;;;;;;;10.33;54.10;99626.09;7738208;32;38911;-80
2022/01/03 07:30:49;;;;;;;10.55;5.45;;;;;;;10.45;52.99;99628.56;7738408;32;39641;-80
2022/01/03 07:35:06;;;;;;;12.43;6.15;;;;;;;10.55;53.00;99620.34;7738162;32;38757;-80
2022/01/03 07:39:22;;;;;;;11.12;6.07;;;;;;;10.84;52.16;99627.94;7738250;32;37003;-80
2022/01/03 07:43:38;;;;;;;14.55;6.47;;;;;;;10.69;52.34;99636.97;7738122;32;39313;-80
2022/01/03 07:47:54;;;;;;;9.15;5.53;;;;;;;10.90;51.47;99630.38;7737603;32;39996;-79
2022/01/03 07:52:10;;;;;;;10.90;5.45;;;;;;;10.64;52.30;99628.78;7737920;32;38734;-80
2022/01/03 07:56:26;;;;;;;9.95;4.85;;;;;;;10.89;51.71;99636.91;7738095;32;38336;-80
2022/01/03 08:00:44;;;;;;;10.98;5.53;;;;;;;10.71;52.61;99635.59;7737966;32;39645;-81
2022/01/03 08:05:01;;;;;;;11.32;3.85;;;;;;;10.63;52.94;99632.63;7737799;32;39657;-80
2022/01/03 08:09:17;;;;;;;9.30;2.92;;;;;;;10.85;52.60;99640.47;7737594;32;37528;-82
2022/01/03 08:13:33;;;;;;;5.78;3.00;;;;;;;10.83;52.15;99627.13;7737721;32;37005;-81
2022/01/03 08:17:49;;;;;;;6.57;3.17;;;;;;;10.62;52.23;99630.97;7736243;32;39257;-80
2022/01/03 08:22:06;;;;;;;7.07;3.03;;;;;;;11.21;50.95;99616.59;7737455;32;40820;-80
2022/01/03 08:26:22;;;;;;;7.62;2.87;;;;;;;11.37;50.04;99635.63;7735479;32;38640;-80
2022/01/03 08:30:38;;;;;;;9.68;3.58;;;;;;;11.17;50.64;99659.19;7737263;32;37149;-81
2022/01/03 08:34:54;;;;;;;5.65;3.10;;;;;;;10.97;50.74;99664.69;7737257;32;39223;-80
2022/01/03 08:39:10;;;;;;;4.07;2.37;;;;;;;10.74;51.92;99661.47;7737069;32;39953;-80
2022/01/03 08:43:26;;;;;;;3.70;2.30;;;;;;;11.11;51.14;99648.56;7736963;32;37960;-80
2022/01/03 08:47:43;;;;;;;6.87;2.30;;;;;;;11.08;51.80;99653.47;7736926;32;36925;-80
2022/01/03 08:52:00;;;;;;;6.03;2.45;;;;;;;11.27;51.40;99650.13;7737320;32;39695;-80
2022/01/03 08:56:16;;;;;;;6.62;2.50;;;;;;;11.55;51.25;99656.81;7736683;32;39942;-80
2022/01/03 09:00:33;;;;;;;4.32;2.20;;;;;;;11.57;51.13;99649.19;7736541;32;38718;-80
2022/01/03 09:04:49;;;;;;;5.47;2.30;;;;;;;11.84;50.46;99645.97;7736499;32;37042;-80
2022/01/03 09:09:08;;;;;;;4.22;2.10;;;;;;;11.90;50.29;99641.31;7736413;32;39290;-80
2022/01/03 09:13:24;;;;;;;4.43;2.37;;;;;;;12.03;49.94;99637.94;7735127;32;39893;-80
2022/01/03 09:17:41;;;;;;;5.80;2.12;;;;;;;11.70;50.54;99649.66;7734714;32;38174;-79
2022/01/03 09:22:13;;;;;;;2.72;2.00;;;;;;;11.76;49.97;99648.50;7736164;32;37716;-80
2022/01/03 09:31:05;;;;;;;5.70;2.22;;;;;;;11.90;49.31;99637.75;7735835;32;41008;-79
2022/01/03 09:35:21;;;;;;;4.97;1.87;;;;;;;11.99;48.75;99641.56;7735760;32;37579;-80
2022/01/03 09:39:37;;;;;;;6.35;1.60;;;;;;;11.79;48.94;99628.81;7739302;32;36971;-80
2022/01/03 09:44:11;;;;;;;5.57;1.98;;;;;;;11.53;49.52;99626.25;7739656;32;40073;-79
2022/01/03 09:48:27;;;;;;;3.87;2.10;;;;;;;11.63;48.48;99625.38;7739561;32;40605;-81
2022/01/03 09:52:46;;;;;;;4.37;2.42;;;;;;;12.15;46.88;99607.53;7738282;32;37572;-81
2022/01/03 09:57:04;;;;;;;5.50;2.17;;;;;;;11.89;47.92;99606.09;7738229;32;37683;-79
2022/01/03 10:01:20;;;;;;;3.60;2.22;;;;;;;12.03;47.43;99601.62;7739475;32;39018;-80
2022/01/03 10:05:37;;;;;;;4.57;1.95;;;;;;;12.27;47.79;99604.44;7738198;32;39712;-80
2022/01/03 10:09:54;;;;;;;2.17;1.58;;;;;;;12.86;46.38;99599.69;7739122;32;38743;-79
2022/01/03 10:14:15;;;;;;;2.28;1.30;;;;;;;12.74;46.94;99596.56;7738028;32;37646;-80
2022/01/03 10:18:33;;;;;;;1.92;1.33;;;;;;;12.66;46.73;99600.75;7739090;32;39778;-81
2022/01/03 10:22:49;;;;;;;1.70;1.25;;;;;;;12.26;46.67;99589.13;7739580;32;37497;-80
2022/01/03 10:27:05;;;;;;;1.40;1.30;;;;;;;12.52;46.91;99588.87;7738920;32;37953;-82
2022/01/03 10:31:22;;;;;;;2.35;1.48;;;;;;;13.07;45.28;99581.13;7739103;32;36961;-80
2022/01/03 10:35:46;;;;;;;1.12;1.02;;;;;;;13.04;45.18;99573.50;7738907;32;40035;-81
2022/01/03 10:40:20;;;;;;;1.67;1.20;;;;;;;13.21;44.33;99583.13;7739084;32;40827;-80
2022/01/03 10:44:38;;;;;;;2.08;1.20;;;;;;;12.81;44.96;99571.59;7738850;32;38045;-80
2022/01/03 10:49:09;;;;;;;2.33;1.42;;;;;;;12.78;44.89;99562.88;7738421;32;36888;-80
2022/01/03 10:53:40;;;;;;;2.83;1.42;;;;;;;12.82;44.91;99554.09;7738756;32;39314;-81
2022/01/03 10:58:04;;;;;;;1.20;1.10;;;;;;;12.42;45.60;99548.78;7738719;32;39931;-79
2022/01/03 11:02:20;;;;;;;2.95;1.20;;;;;;;12.82;45.24;99565.03;7738656;32;38050;-80
2022/01/03 11:06:47;;;;;;;1.00;1.00;;;;;;;12.68;45.62;99565.72;7738815;32;36980;-80
2022/01/03 11:11:04;;;;;;;2.15;1.20;;;;;;;12.42;46.15;99556.16;7738725;32;40008;-79
2022/01/03 11:15:20;;;;;;;4.07;1.30;;;;;;;12.36;46.72;99569.88;7738470;32;40716;-80
2022/01/03 11:19:38;;;;;;;3.70;1.35;;;;;;;12.27;47.08;99560.69;7738293;32;37967;-80
2022/01/03 11:24:11;;;;;;;1.42;1.33;;;;;;;12.51;46.67;99557.19;7738537;32;35881;-80
2022/01/03 11:28:29;;;;;;;1.60;1.27;;;;;;;12.57;46.80;99561.47;7738419;32;39774;-80
2022/01/03 11:32:48;;;;;;;3.40;1.48;;;;;;;12.58;46.75;99555.72;7738403;32;39399;-79
2022/01/03 11:37:06;;;;;;;1.92;1.10;;;;;;;12.66;46.87;99559.75;7738375;32;37601;-80
2022/01/03 11:41:22;;;;;;;1.40;1.20;;;;;;;12.65;46.77;99566.31;7736676;32;37658;-79
2022/01/03 11:45:39;;;;;;;1.95;1.12;;;;;;;12.65;46.39;99571.78;7738209;32;39489;-79
2022/01/03 11:49:56;;;;;;;4.35;1.30;;;;;;;12.85;46.50;99553.47;7738032;32;40031;-79
2022/01/03 11:54:14;;;;;;;2.87;1.70;;;;;;;12.38;47.39;99548.56;7737913;32;38187;-83
2022/01/03 11:59:07;;;;;;;3.03;1.70;;;;;;;12.22;48.45;99549.81;7737436;32;38661;-82
2022/01/03 12:03:39;;;;;;;5.57;2.23;;;;;;;11.77;49.36;99551.81;7737994;32;39412;-83
2022/01/03 12:07:56;;;;;;;3.33;1.73;;;;;;;12.08;49.85;99549.66;7737697;32;40777;-82
2022/01/03 12:12:33;;;;;;;3.22;2.10;;;;;;;12.40;49.11;99549.09;7737674;32;37938;-82
2022/01/03 12:16:54;;;;;;;4.53;2.17;;;;;;;11.78;50.49;99548.81;7703388;32;174852;-80
2022/01/03 12:21:13;;;;;;;2.65;1.75;;;;;;;11.54;51.65;99529.63;7682747;32;39277;-80
2022/01/03 12:25:32;;;;;;;2.85;1.60;;;;;;;11.70;50.71;99534.97;7683351;32;38855;-81
2022/01/03 12:30:00;;;;;;;2.70;1.75;;;;;;;12.21;49.94;99523.56;7683252;32;38130;-80
2022/01/03 12:34:19;;;;;;;2.15;1.23;;;;;;;12.92;48.12;99515.66;7683582;32;36876;-81
2022/01/03 12:38:36;;;;;;;3.55;1.40;;;;;;;13.44;47.04;99513.84;7682725;32;39216;-82
2022/01/03 12:42:54;;;;;;;2.53;1.40;;;;;;;13.05;47.59;99514.09;7683290;32;40703;-82
2022/01/03 12:47:17;;;;;;;2.35;1.48;;;;;;;13.37;46.76;99516.16;7682437;32;37887;-82
2022/01/03 12:51:36;;;;;;;2.62;1.40;;;;;;;12.98;47.34;99503.53;7682837;32;36917;-83
2022/01/03 12:56:01;;;;;;;3.35;1.50;;;;;;;13.52;47.22;99509.59;7682716;32;40044;-83
2022/01/03 13:00:37;;;;;;;3.08;1.73;;;;;;;13.73;46.50;99518.31;7682610;32;39598;-83
2022/01/03 13:04:53;;;;;;;4.75;1.67;;;;;;;13.08;48.12;99513.53;7716193;32;37980;-82
2022/01/03 13:09:13;;;;;;;3.70;1.98;;;;;;;13.31;48.00;99517.28;7735460;32;37871;-82
2022/01/03 13:13:29;;;;;;;2.95;1.73;;;;;;;13.50;47.37;99515.41;7723880;32;39770;-83
2022/01/03 13:17:45;;;;;;;3.80;2.12;;;;;;;13.53;47.62;99517.53;7737522;32;41586;-82
2022/01/03 13:22:05;;;;;;;3.60;1.90;;;;;;;13.44;46.90;99533.00;7739073;32;38902;-82
2022/01/03 13:26:22;;;;;;;7.85;2.10;;;;;;;12.64;48.95;99526.41;7739372;32;37438;-81
2022/01/03 13:30:38;;;;;;;25.90;12.93;;;;;;;12.73;48.39;99537.50;7738561;32;39948;-82
2022/01/03 13:34:55;;;;;;;2.80;2.03;;;;;;;13.05;46.61;99536.00;7738313;32;40716;-81
2022/01/03 13:39:14;;;;;;;1.95;1.40;;;;;;;13.51;45.88;99532.62;7739408;32;38800;-83
2022/01/03 13:43:31;;;;;;;4.78;1.90;;;;;;;14.64;41.64;99526.00;7739652;32;36956;-82
2022/01/03 13:52:39;;;;;;;2.58;1.35;;;;;;;18.47;34.68;99497.47;7738552;32;39961;-79
2022/01/03 13:56:58;;;;;;;3.22;1.65;;;;;;;21.83;27.87;99488.34;7739323;32;38133;-82
2022/01/03 14:01:15;;;;;;;3.00;1.42;;;;;;;21.93;26.91;99496.16;7739233;32;36642;-79
2022/01/03 14:05:32;;;;;;;2.78;1.00;;;;;;;20.95;28.72;99506.37;7739219;32;39494;-77
2022/01/03 14:09:58;;;;;;;2.72;0.90;;;;;;;19.33;31.15;99513.84;7738966;32;41607;-78
2022/01/03 14:14:19;;;;;;;1.77;0.73;;;;;;;17.46;34.99;99536.41;7738990;32;38609;-79
2022/01/03 14:18:43;;;;;;;1.37;0.80;;;;;;;17.13;36.58;99542.38;7738949;32;36865;-79
2022/01/03 14:22:59;;;;;;;;;;;;;;;16.24;38.62;99542.38;7738708;32;38956;-78
2022/01/03 14:27:18;;;;;;;1.10;0.95;;;;;;;15.62;40.74;99559.56;7739024;32;41151;-81
2022/01/03 14:31:56;;;;;;;1.70;0.93;;;;;;;14.88;41.74;99562.56;7738617;32;37895;-79
2022/01/03 14:36:13;;;;;;;1.00;0.90;;;;;;;14.29;43.11;99563.12;7738659;32;37710;-78
2022/01/03 14:40:47;;;;;;;1.33;1.00;;;;;;;13.81;44.55;99566.13;7738664;32;40081;-79
2022/01/03 14:45:16;;;;;;;3.97;1.37;;;;;;;14.06;43.98;99576.66;7738582;32;40565;-80
2022/01/03 14:49:33;;;;;;;4.20;1.60;;;;;;;13.96;44.61;99578.78;7738381;32;38749;-80
2022/01/03 14:54:07;;;;;;;4.80;1.62;;;;;;;13.74;44.73;99582.94;7737469;32;36887;-80
2022/01/03 14:58:23;;;;;;;3.95;1.80;;;;;;;13.41;45.37;99582.06;7738686;32;39308;-80
2022/01/03 15:02:39;;;;;;;4.15;1.70;;;;;;;12.84;46.99;99588.25;7738596;32;40044;-77
2022/01/03 15:07:12;;;;;;;4.18;1.90;;;;;;;12.84;46.97;99592.91;7738285;32;38505;-79
2022/01/03 15:11:28;;;;;;;4.95;2.22;;;;;;;13.18;46.63;99595.50;7738655;32;36980;-79
2022/01/03 15:15:44;;;;;;;3.28;1.92;;;;;;;12.88;47.34;99583.00;7738548;32;40277;-79
2022/01/03 15:20:01;;;;;;;7.43;2.50;;;;;;;12.84;47.53;99607.38;7738242;32;40717;-77
2022/01/03 15:24:17;;;;;;;5.62;1.58;;;;;;;12.88;47.50;99596.69;7738387;32;38431;-77
2022/01/03 15:28:33;;;;;;;4.20;1.80;;;;;;;12.60;48.17;99588.25;7738320;32;36694;-78
2022/01/03 15:32:53;;;;;;;3.65;1.67;;;;;;;12.64;48.29;99592.03;7738377;32;39314;-80
2022/01/03 15:37:09;;;;;;;2.25;1.50;;;;;;;12.58;48.17;99582.25;7737131;32;39950;-80
2022/01/03 15:41:25;;;;;;;2.83;1.62;;;;;;;12.80;47.58;99580.91;7736971;32;38854;-80
2022/01/03 15:45:41;;;;;;;3.58;1.85;;;;;;;12.89;47.57;99596.37;7736966;32;36946;-79
2022/01/03 15:49:58;;;;;;;6.65;2.30;;;;;;;12.47;48.60;99597.97;7738014;32;39201;-78
2022/01/03 15:54:14;;;;;;;3.37;2.08;;;;;;;12.25;49.52;99592.97;7738072;32;40039;-78
2022/01/03 15:58:30;;;;;;;4.10;2.28;;;;;;;12.44;49.52;99595.78;7737819;32;38695;-81
2022/01/03 16:02:46;;;;;;;5.55;2.20;;;;;;;12.35;50.97;99578.41;7737949;32;37633;-81
2022/01/03 16:07:05;;;;;;;6.12;2.62;;;;;;;12.24;51.30;99596.78;7738027;32;38897;-83
2022/01/03 16:11:22;;;;;;;12.52;2.62;;;;;;;12.32;52.80;99587.16;7737746;32;38968;-79
2022/01/03 16:15:44;;;;;;;;;;;;;;;11.96;54.77;99577.38;7737892;32;37968;-79
2022/01/03 16:20:02;;;;;;;6.03;2.45;;;;;;;12.12;54.86;99575.31;7737627;32;36137;-79
2022/01/03 16:24:19;;;;;;;11.10;4.82;;;;;;;11.58;56.16;99585.28;7737634;32;38545;-81
2022/01/03 16:28:35;;;;;;;9.52;5.00;;;;;;;11.42;56.46;99578.28;7737233;32;40524;-81
2022/01/03 16:32:51;;;;;;;11.50;5.35;;;;;;;11.27;56.91;99588.19;7737328;32;38483;-81
2022/01/03 16:37:07;;;;;;;12.32;6.07;;;;;;;11.58;55.68;99582.53;7737271;32;37043;-79
2022/01/03 16:41:24;;;;;;;14.75;7.25;;;;;;;11.43;56.22;99585.38;7737128;32;39152;-80
2022/01/03 16:45:40;;;;;;;18.73;8.45;;;;;;;11.46;56.40;99587.53;7737622;32;40750;-80
2022/01/03 16:49:57;;;;;;;16.02;6.97;;;;;;;11.27;56.26;99588.19;7740143;32;37577;-81
2022/01/03 16:54:13;;;;;;;13.40;7.07;;;;;;;11.47;56.13;99597.37;7740188;32;36929;-79
2022/01/03 16:58:29;;;;;;;13.10;6.55;;;;;;;11.29;56.64;99596.09;7740116;32;38996;-80
2022/01/03 17:02:45;;;;;;;11.85;5.50;;;;;;;11.39;56.48;99592.50;7740027;32;40545;-80
2022/01/03 17:07:01;;;;;;;15.23;5.35;;;;;;;11.15;56.62;99604.06;7714046;32;37909;-81
2022/01/03 17:11:17;;;;;;;11.07;5.30;;;;;;;10.92;56.68;99599.25;7720404;32;37005;-80
2022/01/03 17:15:33;;;;;;;13.65;4.90;;;;;;;11.01;56.28;99600.31;7739188;32;39829;-81
2022/01/03 17:19:49;;;;;;;11.15;5.00;;;;;;;10.74;56.51;99601.50;7713061;32;40100;-80
2022/01/03 17:24:06;;;;;;;9.57;5.07;;;;;;;11.06;55.57;99600.31;7712687;32;37848;-80
2022/01/03 17:28:24;;;;;;;11.32;5.15;;;;;;;10.95;55.97;99601.44;7712055;32;37848;-80
2022/01/03 17:32:45;;;;;;;13.00;4.87;;;;;;;11.08;55.38;99604.37;7731878;32;38223;-81
2022/01/03 17:37:01;;;;;;;9.57;4.40;;;;;;;11.05;55.41;99613.09;7738569;32;39919;-81
2022/01/03 17:41:17;;;;;;;10.85;4.47;;;;;;;11.11;55.37;99624.00;7739087;32;38042;-81
2022/01/03 17:45:34;;;;;;;11.00;4.75;;;;;;;11.19;55.27;99607.91;7738991;32;37718;-81
2022/01/03 17:49:51;;;;;;;15.88;7.60;;;;;;;10.98;55.86;99612.59;7738443;32;40029;-81
2022/01/03 17:54:07;;;;;;;16.02;7.00;;;;;;;11.01;55.78;99611.25;7739200;32;40791;-81
2022/01/03 17:58:23;;;;;;;12.90;6.28;;;;;;;10.65;56.43;99614.06;7726056;32;38641;-81
2022/01/03 18:02:39;;;;;;;7.60;4.62;;;;;;;10.71;56.64;99607.53;7712274;32;37136;-81
2022/01/03 18:06:56;;;;;;;7.65;3.15;;;;;;;10.04;58.14;99615.75;7717293;32;39192;-80
2022/01/03 18:11:12;;;;;;;6.62;3.87;;;;;;;9.85;58.45;99611.91;7738636;32;40831;-80
2022/01/03 18:15:29;;;;;;;6.35;2.92;;;;;;;10.12;56.81;99600.75;7730557;32;37928;-81
2022/01/03 18:19:45;;;;;;;5.07;2.50;;;;;;;9.93;57.29;99609.50;7711213;32;37618;-80
2022/01/03 18:24:04;;;;;;;4.20;2.42;;;;;;;10.14;56.11;99615.75;7712097;32;40071;-80
2022/01/03 18:28:20;;;;;;;3.92;1.87;;;;;;;9.94;56.47;99616.56;7733325;32;39801;-80
2022/01/03 18:32:36;;;;;;;5.45;2.90;;;;;;;10.59;53.91;99604.25;7712793;32;37873;-80
2022/01/03 18:36:52;;;;;;;3.35;2.40;;;;;;;10.23;54.82;99613.31;7721108;32;37136;-80
2022/01/03 18:41:09;;;;;;;5.40;2.20;;;;;;;10.38;53.80;99601.56;7711177;32;39901;-79
2022/01/03 18:45:25;;;;;;;5.80;2.33;;;;;;;10.69;53.10;99615.97;7710876;32;38114;-79
2022/01/03 18:49:41;;;;;;;5.62;2.20;;;;;;;10.56;53.60;99604.84;7710692;32;38446;-80
2022/01/03 18:53:59;;;;;;;6.00;2.78;;;;;;;10.46;54.03;99611.94;7712008;32;37673;-80
2022/01/03 18:58:16;;;;;;;5.25;2.03;;;;;;;10.59;53.91;99609.72;7711942;32;39969;-80
2022/01/03 19:02:32;;;;;;;3.42;2.17;;;;;;;10.88;53.44;99610.75;7711874;32;40035;-80
2022/01/03 19:06:48;;;;;;;3.92;1.80;;;;;;;10.79;53.95;99608.84;7711379;32;38001;-78
2022/01/03 19:11:04;;;;;;;6.03;2.72;;;;;;;10.78;54.50;99623.56;7698715;32;37653;-79
2022/01/03 19:15:20;;;;;;;5.05;3.10;;;;;;;10.23;55.85;99620.66;7701771;32;40061;-79
2022/01/03 19:19:39;;;;;;;4.97;2.62;;;;;;;11.03;54.12;99609.84;7711394;32;40911;-79
2022/01/03 19:23:55;;;;;;;6.00;2.45;;;;;;;11.08;53.62;99606.28;7711616;32;36886;-80
2022/01/03 19:28:11;;;;;;;9.25;2.92;;;;;;;11.64;52.44;99603.25;7711546;32;36642;-80
2022/01/03 19:32:38;;;;;;;8.48;3.05;;;;;;;11.66;52.69;99608.44;7711465;32;39958;-80
2022/01/03 19:41:29;;;;;;;6.45;3.10;;;;;;;11.50;53.26;99601.44;7711205;32;37647;-81
2022/01/03 19:45:47;;;;;;;8.18;3.37;;;;;;;10.93;54.00;99604.44;7711276;32;37003;-79
2022/01/03 19:50:04;;;;;;;4.82;2.37;;;;;;;11.01;54.81;99605.78;7711178;32;38213;-79
2022/01/03 19:54:20;;;;;;;2.85;1.85;;;;;;;11.14;53.84;99587.97;7710951;32;40843;-79
2022/01/03 19:58:36;;;;;;;2.37;1.85;;;;;;;10.28;56.51;99602.41;7710874;32;37972;-79
2022/01/03 20:02:53;;;;;;;5.57;1.92;;;;;;;9.96;57.21;99599.97;7711086;32;37114;-78
2022/01/03 20:07:09;;;;;;;11.82;2.90;;;;;;;10.19;57.15;99590.41;7710892;32;39764;-79
2022/01/03 20:11:25;;;;;;;6.35;2.78;;;;;;;10.87;55.72;99600.91;7709467;32;40070;-80
2022/01/03 20:15:41;;;;;;;6.15;2.58;;;;;;;10.89;55.76;99597.91;7695941;32;38662;-78
2022/01/03 20:19:58;;;;;;;7.30;2.50;;;;;;;10.38;57.45;99604.31;7695731;32;36916;-79
2022/01/03 20:24:16;;;;;;;4.78;2.78;;;;;;;10.58;57.31;99603.47;7695813;32;39243;-79
2022/01/03 20:28:32;;;;;;;9.00;3.50;;;;;;;10.94;55.99;99583.44;7692091;32;40870;-80